createdAt,value
2022-11-17T00:00:48.065Z,18.65
2022-11-17T00:03:16.968Z,21.45
2022-11-17T00:05:45.730Z,17.77
2022-11-17T00:08:15.405Z,24.08
2022-11-17T00:10:43.677Z,20.70
2022-11-17T00:13:29.342Z,22.40
2022-11-17T00:15:57.662Z,18.58
2022-11-17T00:18:43.786Z,20.77
2022-11-17T00:21:23.816Z,19.83
2022-11-17T00:23:54.082Z,20.55
2022-11-17T00:26:24.077Z,20.42
2022-11-17T00:28:53.834Z,20.35
2022-11-17T00:31:41.196Z,18.58
2022-11-17T00:34:14.020Z,19.08
2022-11-17T00:36:44.191Z,20.65
2022-11-17T00:39:15.764Z,18.80
2022-11-17T00:41:44.461Z,20.15
2022-11-17T00:44:13.345Z,19.67
2022-11-17T00:46:42.000Z,18.17
2022-11-17T00:49:11.643Z,18.10
2022-11-17T00:51:40.088Z,18.58
2022-11-17T00:54:11.810Z,19.23
2022-11-17T00:56:41.977Z,19.50
2022-11-17T00:59:10.505Z,19.80
2022-11-17T01:01:39.825Z,18.58
2022-11-17T01:04:08.682Z,18.42
2022-11-17T01:06:39.306Z,18.05
2022-11-17T01:09:12.392Z,20.85
2022-11-17T01:11:42.440Z,20.00
2022-11-17T01:14:14.007Z,17.70
2022-11-17T01:16:42.524Z,18.60
2022-11-17T01:19:12.546Z,18.15
2022-11-17T01:21:40.929Z,18.50
2022-11-17T01:24:12.301Z,19.45
2022-11-17T01:26:42.629Z,17.10
2022-11-17T01:29:14.017Z,17.65
2022-11-17T01:31:44.370Z,18.55
2022-11-17T01:34:13.261Z,19.40
2022-11-17T01:37:00.974Z,16.35
2022-11-17T01:39:31.664Z,18.08
2022-11-17T01:42:04.589Z,18.55
2022-11-17T01:44:59.268Z,20.42
2022-11-17T01:47:33.961Z,18.92
2022-11-17T01:50:08.171Z,17.08
2022-11-17T01:52:39.123Z,21.00
2022-11-17T01:55:09.733Z,18.70
2022-11-17T01:57:45.158Z,15.65
2022-11-17T02:00:14.513Z,16.65
2022-11-17T02:02:47.553Z,19.65
2022-11-17T02:05:29.449Z,18.08
2022-11-17T02:08:00.837Z,19.63
2022-11-17T02:10:31.905Z,17.65
2022-11-17T02:13:01.915Z,18.80
2022-11-17T02:15:30.584Z,18.33
2022-11-17T02:18:00.404Z,17.65
2022-11-17T02:20:42.592Z,17.42
2022-11-17T02:23:41.939Z,18.08
2022-11-17T02:26:25.226Z,19.98
2022-11-17T02:29:04.270Z,19.58
2022-11-17T02:31:43.575Z,17.75
2022-11-17T02:34:24.866Z,18.48
2022-11-17T02:36:59.999Z,18.40
2022-11-17T02:39:34.637Z,19.60
2022-11-17T02:42:10.358Z,20.85
2022-11-17T02:44:43.133Z,19.10
2022-11-17T02:47:16.678Z,19.17
2022-11-17T02:49:50.253Z,19.00
2022-11-17T02:52:20.181Z,18.77
2022-11-17T02:54:48.468Z,17.67
2022-11-17T02:57:29.909Z,18.98
2022-11-17T03:00:02.117Z,18.70
2022-11-17T03:02:48.028Z,18.33
2022-11-17T03:05:21.870Z,18.38
2022-11-17T03:08:08.106Z,18.95
2022-11-17T03:10:50.374Z,17.88
2022-11-17T03:13:25.120Z,22.10
2022-11-17T03:16:00.604Z,18.95
2022-11-17T03:18:36.161Z,19.10
2022-11-17T03:21:11.809Z,18.23
2022-11-17T03:23:43.713Z,18.75
2022-11-17T03:26:14.755Z,18.50
2022-11-17T03:28:47.407Z,18.10
2022-11-17T03:31:18.681Z,17.67
2022-11-17T03:33:50.653Z,19.42
2022-11-17T03:36:23.897Z,18.13
2022-11-17T03:38:58.116Z,19.30
2022-11-17T03:41:29.857Z,18.35
2022-11-17T03:44:00.046Z,17.70
2022-11-17T03:46:31.265Z,18.83
2022-11-17T03:49:09.912Z,18.25
2022-11-17T03:51:38.804Z,20.67
2022-11-17T03:54:08.832Z,18.42
2022-11-17T03:56:45.323Z,17.42
2022-11-17T03:59:18.608Z,18.55
2022-11-17T04:01:48.343Z,17.75
2022-11-17T04:04:18.074Z,16.92
2022-11-17T04:06:46.907Z,18.25
2022-11-17T04:09:17.651Z,17.52
2022-11-17T04:12:07.457Z,19.45
2022-11-17T04:14:53.082Z,17.65
2022-11-17T04:17:22.978Z,18.20
2022-11-17T04:19:51.313Z,18.73
2022-11-17T04:22:19.621Z,18.25
2022-11-17T04:24:47.923Z,19.77
2022-11-17T04:27:33.693Z,18.80
2022-11-17T04:30:02.022Z,17.48
2022-11-17T04:32:31.813Z,18.95
2022-11-17T04:35:00.212Z,17.60
2022-11-17T04:37:28.534Z,18.80
2022-11-17T04:39:56.831Z,17.08
2022-11-17T04:42:24.169Z,21.02
2022-11-17T04:44:52.516Z,19.48
2022-11-17T04:47:20.842Z,17.55
2022-11-17T04:49:50.533Z,18.70
2022-11-17T04:52:18.881Z,19.35
2022-11-17T04:54:47.176Z,18.40
2022-11-17T04:57:15.514Z,18.58
2022-11-17T04:59:43.837Z,19.40
2022-11-17T05:02:12.239Z,20.00
2022-11-17T05:04:59.081Z,21.15
2022-11-17T05:07:28.854Z,18.33
2022-11-17T05:09:57.248Z,20.40
2022-11-17T05:12:42.850Z,19.50
2022-11-17T05:15:11.357Z,21.17
2022-11-17T05:17:38.662Z,19.67
2022-11-17T05:20:07.888Z,17.33
2022-11-17T05:22:54.759Z,19.13
2022-11-17T05:25:23.101Z,19.17
2022-11-17T05:27:51.414Z,20.08
2022-11-17T05:30:19.718Z,20.27
2022-11-17T05:32:48.050Z,19.27
2022-11-17T05:35:16.449Z,19.65
2022-11-17T05:37:46.117Z,22.38
2022-11-17T05:40:14.442Z,21.88
2022-11-17T05:42:42.760Z,19.45
2022-11-17T05:45:11.379Z,20.02
2022-11-17T05:47:40.123Z,20.33
2022-11-17T05:50:08.804Z,21.30
2022-11-17T05:52:37.166Z,20.88
2022-11-17T05:55:08.322Z,24.02
2022-11-17T05:57:36.797Z,20.88
2022-11-17T06:00:06.249Z,21.55
2022-11-17T06:02:40.472Z,20.70
2022-11-17T06:05:12.368Z,19.95
2022-11-17T06:07:44.646Z,20.23
2022-11-17T06:10:14.518Z,22.05
2022-11-17T06:12:42.798Z,21.88
2022-11-17T06:15:11.669Z,20.63
2022-11-17T06:17:44.099Z,22.70
2022-11-17T06:20:16.737Z,21.80
2022-11-17T06:22:48.303Z,21.98
2022-11-17T06:25:20.504Z,21.50
2022-11-17T06:27:51.425Z,20.45
2022-11-17T06:30:20.207Z,19.50
2022-11-17T06:32:50.428Z,20.52
2022-11-17T06:35:18.998Z,22.25
2022-11-17T06:37:47.343Z,20.75
2022-11-17T06:40:16.492Z,21.00
2022-11-17T06:43:08.312Z,19.85
2022-11-17T06:45:37.862Z,21.45
2022-11-17T06:48:07.241Z,20.63
2022-11-17T06:50:35.675Z,22.60
2022-11-17T06:53:07.089Z,22.33
2022-11-17T06:55:36.692Z,23.60
2022-11-17T06:58:08.133Z,23.65
2022-11-17T07:00:37.278Z,19.25
2022-11-17T07:03:09.203Z,22.00
2022-11-17T07:05:40.197Z,23.00
2022-11-17T07:08:10.183Z,26.67
2022-11-17T07:10:38.880Z,22.50
2022-11-17T07:13:08.914Z,20.55
2022-11-17T07:15:37.331Z,24.38
2022-11-17T07:18:05.727Z,22.63
2022-11-17T07:20:34.078Z,23.58
2022-11-17T07:23:02.490Z,25.42
2022-11-17T07:25:30.892Z,26.02
2022-11-17T07:28:00.293Z,23.67
2022-11-17T07:30:30.262Z,27.02
2022-11-17T07:32:59.902Z,21.23
2022-11-17T07:35:29.068Z,21.48
2022-11-17T07:38:01.544Z,24.70
2022-11-17T07:40:30.416Z,20.42
2022-11-17T07:42:58.846Z,20.30
2022-11-17T07:45:31.882Z,19.27
2022-11-17T07:48:03.508Z,20.58
2022-11-17T07:50:31.887Z,18.85
2022-11-17T07:53:00.535Z,19.67
2022-11-17T07:55:28.937Z,20.85
2022-11-17T07:57:59.031Z,19.63
2022-11-17T08:00:28.447Z,20.55
2022-11-17T08:02:57.301Z,20.98
2022-11-17T08:05:30.560Z,20.88
2022-11-17T08:08:00.313Z,21.58
2022-11-17T08:10:31.348Z,19.85
2022-11-17T08:13:00.878Z,19.02
2022-11-17T08:15:29.549Z,20.88
2022-11-17T08:17:59.509Z,18.77
2022-11-17T08:20:30.229Z,18.92
2022-11-17T08:22:58.743Z,19.23
2022-11-17T08:25:28.309Z,18.08
2022-11-17T08:27:57.825Z,17.75
2022-11-17T08:30:28.580Z,17.73
2022-11-17T08:32:56.944Z,19.90
2022-11-17T08:35:26.349Z,20.80
2022-11-17T08:37:56.344Z,20.88
2022-11-17T08:40:24.739Z,20.23
2022-11-17T08:43:00.412Z,16.92
2022-11-17T08:45:29.700Z,27.80
2022-11-17T08:47:58.337Z,19.48
2022-11-17T08:50:27.137Z,19.58
2022-11-17T08:52:56.884Z,18.60
2022-11-17T08:55:26.393Z,19.77
2022-11-17T08:57:54.973Z,19.65
2022-11-17T09:00:23.779Z,23.13
2022-11-17T09:02:52.282Z,19.02
2022-11-17T09:05:21.068Z,20.35
2022-11-17T09:07:49.580Z,19.42
2022-11-17T09:10:19.555Z,20.83
2022-11-17T09:12:47.922Z,19.88
2022-11-17T09:15:16.538Z,18.05
2022-11-17T09:17:47.727Z,22.00
2022-11-17T09:20:16.942Z,22.67
2022-11-17T09:22:45.449Z,24.25
2022-11-17T09:25:14.611Z,22.38
2022-11-17T09:27:44.416Z,22.67
2022-11-17T09:30:13.274Z,24.83
2022-11-17T09:32:41.903Z,21.92
2022-11-17T09:35:10.929Z,23.55
2022-11-17T09:37:39.399Z,24.33
2022-11-17T09:40:11.713Z,35.42
2022-11-17T09:42:41.261Z,22.08
2022-11-17T09:45:19.354Z,24.08
2022-11-17T09:48:07.043Z,25.48
2022-11-17T09:50:42.595Z,21.38
2022-11-17T09:53:16.728Z,22.40
2022-11-17T09:55:47.300Z,28.48
2022-11-17T09:58:23.614Z,26.27
2022-11-17T10:00:54.403Z,23.10
2022-11-17T10:03:26.769Z,25.75
2022-11-17T10:05:55.632Z,31.77
2022-11-17T10:08:35.983Z,24.05
2022-11-17T10:11:24.804Z,25.17
2022-11-17T10:13:53.317Z,27.10
2022-11-17T10:16:23.300Z,23.05
2022-11-17T10:18:51.717Z,26.05
2022-11-17T10:21:20.126Z,25.38
2022-11-17T10:23:57.115Z,27.05
2022-11-17T10:26:25.784Z,23.42
2022-11-17T10:29:08.695Z,25.55
2022-11-17T10:31:44.182Z,24.88
2022-11-17T10:34:13.965Z,30.73
2022-11-17T10:36:51.524Z,25.83
2022-11-17T10:39:38.364Z,26.67
2022-11-17T10:42:22.587Z,24.60
2022-11-17T10:44:54.527Z,26.02
2022-11-17T10:47:30.190Z,25.63
2022-11-17T10:50:18.868Z,24.25
2022-11-17T10:52:47.699Z,35.85
2022-11-17T10:55:26.522Z,23.23
2022-11-17T10:57:59.434Z,22.92
2022-11-17T11:00:32.980Z,25.20
2022-11-17T11:03:18.783Z,24.27
2022-11-17T11:06:05.170Z,22.85
2022-11-17T11:08:41.719Z,22.08
2022-11-17T11:11:18.610Z,23.58
2022-11-17T11:13:53.338Z,23.88
2022-11-17T11:16:21.763Z,23.85
2022-11-17T11:18:53.482Z,23.40
2022-11-17T11:21:37.931Z,24.95
2022-11-17T11:24:16.380Z,21.20
2022-11-17T11:26:54.037Z,23.98
2022-11-17T11:29:30.975Z,25.95
2022-11-17T11:32:18.834Z,22.42
2022-11-17T11:35:31.723Z,20.95
2022-11-17T11:38:15.954Z,26.90
2022-11-17T11:41:02.430Z,27.52
2022-11-17T11:43:40.921Z,22.25
2022-11-17T11:46:17.114Z,25.90
2022-11-17T11:48:49.053Z,25.27
2022-11-17T11:51:23.662Z,24.23
2022-11-17T11:53:58.046Z,22.73
2022-11-17T11:59:01.930Z,21.80
2022-11-17T12:01:38.119Z,23.77
2022-11-17T12:04:17.816Z,25.30
2022-11-17T12:06:54.701Z,20.77
2022-11-17T12:09:47.699Z,20.85
2022-11-17T12:12:18.418Z,20.38
2022-11-17T12:15:13.620Z,22.08
2022-11-17T12:17:57.562Z,20.38
2022-11-17T12:20:57.086Z,23.30
2022-11-17T12:23:49.033Z,22.75
2022-11-17T12:26:26.494Z,21.05
2022-11-17T12:29:26.488Z,27.02
2022-11-17T12:31:56.027Z,21.40
2022-11-17T12:34:27.877Z,19.42
2022-11-17T12:37:19.370Z,20.83
2022-11-17T12:40:31.110Z,20.85
2022-11-17T12:43:23.772Z,24.75
2022-11-17T12:46:05.125Z,21.83
2022-11-17T12:48:36.759Z,22.05
2022-11-17T12:51:12.515Z,21.30
2022-11-17T12:53:53.657Z,22.48
2022-11-17T12:56:38.456Z,20.23
2022-11-17T12:59:53.360Z,20.35
2022-11-17T13:02:37.500Z,20.20
2022-11-17T13:05:14.547Z,22.67
2022-11-17T13:07:42.866Z,19.67
2022-11-17T13:10:25.546Z,21.23
2022-11-17T13:13:12.979Z,19.63
2022-11-17T13:15:44.644Z,21.55
2022-11-17T13:18:22.054Z,18.90
2022-11-17T13:20:50.425Z,23.67
2022-11-17T13:23:22.433Z,20.17
2022-11-17T13:25:51.299Z,21.38
2022-11-17T13:28:33.728Z,19.88
2022-11-17T13:31:03.631Z,21.65
2022-11-17T13:33:36.951Z,22.13
2022-11-17T13:36:17.859Z,22.52
2022-11-17T13:38:50.258Z,22.13
2022-11-17T13:41:20.907Z,20.55
2022-11-17T13:43:50.941Z,19.67
2022-11-17T13:46:20.928Z,21.40
2022-11-17T13:48:51.565Z,18.70
2022-11-17T13:51:33.147Z,20.00
2022-11-17T13:54:07.203Z,21.35
2022-11-17T13:56:38.650Z,20.85
2022-11-17T13:59:22.879Z,19.58
2022-11-17T14:02:24.338Z,21.58
2022-11-17T14:05:23.039Z,21.77
2022-11-17T14:07:52.953Z,25.73
2022-11-17T14:10:33.016Z,20.27
2022-11-17T14:13:29.859Z,19.63
2022-11-17T14:16:00.746Z,20.48
2022-11-17T14:18:34.220Z,25.70
2022-11-17T14:21:14.719Z,22.17
2022-11-17T14:23:44.220Z,24.52
2022-11-17T14:26:20.268Z,25.55
2022-11-17T14:28:50.217Z,21.45
2022-11-17T14:31:18.875Z,21.65
2022-11-17T14:33:50.441Z,22.25
2022-11-17T14:36:19.330Z,21.58
2022-11-17T14:38:47.930Z,22.15
2022-11-17T14:41:17.103Z,19.58
2022-11-17T14:43:45.905Z,20.90
2022-11-17T14:46:20.605Z,27.80
2022-11-17T14:48:50.445Z,25.88
2022-11-17T14:51:19.211Z,27.50
2022-11-17T14:53:47.877Z,23.00
2022-11-17T14:56:18.932Z,26.85
2022-11-17T14:58:50.491Z,23.23
2022-11-17T15:01:20.828Z,25.25
2022-11-17T15:03:52.866Z,21.20
2022-11-17T15:06:21.383Z,23.77
2022-11-17T15:08:54.592Z,24.45
2022-11-17T15:11:23.003Z,21.15
2022-11-17T15:13:51.437Z,22.38
2022-11-17T15:16:20.127Z,23.80
2022-11-17T15:18:50.510Z,27.25
2022-11-17T15:21:18.978Z,28.95
2022-11-17T15:23:47.596Z,27.63
2022-11-17T15:26:18.727Z,26.35
2022-11-17T15:28:47.666Z,23.15
2022-11-17T15:31:17.842Z,23.55
2022-11-17T15:33:47.860Z,25.70
2022-11-17T15:36:20.806Z,25.83
2022-11-17T15:38:49.826Z,30.77
2022-11-17T15:41:18.298Z,29.58
2022-11-17T15:43:46.655Z,24.92
2022-11-17T15:46:17.321Z,24.83
2022-11-17T15:48:47.254Z,21.70
2022-11-17T15:51:19.179Z,24.75
2022-11-17T15:53:49.238Z,24.48
2022-11-17T15:56:19.894Z,24.73
2022-11-17T15:58:49.622Z,25.90
2022-11-17T16:01:26.747Z,23.33
2022-11-17T16:03:59.087Z,24.75
2022-11-17T16:06:29.124Z,29.25
2022-11-17T16:08:57.706Z,26.30
2022-11-17T16:11:27.012Z,26.80
2022-11-17T16:13:56.249Z,28.40
2022-11-17T16:16:26.194Z,26.60
2022-11-17T16:18:54.972Z,25.65
2022-11-17T16:21:23.534Z,27.23
2022-11-17T16:23:55.831Z,26.17
2022-11-17T16:26:26.972Z,27.83
2022-11-17T16:28:59.255Z,27.15
2022-11-17T16:31:29.271Z,23.80
2022-11-17T16:33:59.323Z,24.38
2022-11-17T16:36:34.557Z,23.83
2022-11-17T16:39:07.911Z,27.63
2022-11-17T16:41:37.887Z,25.58
2022-11-17T16:44:09.551Z,25.55
2022-11-17T16:46:38.188Z,24.95
2022-11-17T16:49:08.306Z,25.13
2022-11-17T16:51:36.786Z,25.75
2022-11-17T16:54:08.190Z,25.90
2022-11-17T16:56:36.561Z,25.90
2022-11-17T16:59:05.010Z,27.02
2022-11-17T17:01:34.799Z,26.48
2022-11-17T17:04:06.344Z,24.73
2022-11-17T17:06:35.365Z,23.45
2022-11-17T17:09:07.626Z,26.75
2022-11-17T17:11:37.373Z,25.13
2022-11-17T17:14:08.310Z,21.67
2022-11-17T17:16:38.667Z,25.02
2022-11-17T17:19:09.266Z,23.45
2022-11-17T17:21:38.815Z,23.63
2022-11-17T17:24:09.773Z,26.17
2022-11-17T17:26:39.218Z,25.77
2022-11-17T17:29:08.085Z,23.45
2022-11-17T17:31:38.469Z,23.27
2022-11-17T17:34:07.929Z,24.23
2022-11-17T17:36:38.489Z,23.05
2022-11-17T17:39:08.729Z,24.00
2022-11-17T17:41:40.908Z,26.48
2022-11-17T17:44:14.529Z,26.00
2022-11-17T17:46:43.610Z,27.58
2022-11-17T17:49:12.609Z,28.55
2022-11-17T17:51:44.081Z,32.08
2022-11-17T17:54:17.711Z,34.40
2022-11-17T17:56:46.630Z,31.60
2022-11-17T17:59:16.039Z,31.42
2022-11-17T18:01:46.214Z,31.35
2022-11-17T18:04:16.460Z,27.35
2022-11-17T18:06:47.931Z,29.40
2022-11-17T18:09:20.467Z,32.17
2022-11-17T18:11:51.157Z,31.55
2022-11-17T18:14:24.346Z,31.83
2022-11-17T18:16:53.908Z,29.77
2022-11-17T18:19:25.754Z,34.30
2022-11-17T18:24:26.614Z,32.10
2022-11-17T18:26:54.979Z,29.48
2022-11-17T18:29:23.392Z,33.60
2022-11-17T18:31:51.893Z,41.13
2022-11-17T18:34:21.756Z,30.42
2022-11-17T18:36:50.639Z,30.63
2022-11-17T18:39:19.750Z,32.85
2022-11-17T18:41:49.760Z,30.85
2022-11-17T18:44:19.915Z,30.92
2022-11-17T18:46:48.825Z,33.08
2022-11-17T18:49:17.468Z,34.50
2022-11-17T18:51:46.427Z,30.90
2022-11-17T18:54:15.086Z,30.92
2022-11-17T18:56:44.617Z,31.52
2022-11-17T18:59:14.881Z,36.72
2022-11-17T19:01:44.216Z,29.60
2022-11-17T19:04:14.479Z,31.90
2022-11-17T19:06:43.139Z,32.03
2022-11-17T19:09:11.871Z,30.30
2022-11-17T19:11:40.452Z,30.42
2022-11-17T19:14:08.866Z,31.58
2022-11-17T19:16:44.102Z,30.02
2022-11-17T19:19:14.990Z,30.52
2022-11-17T19:21:44.395Z,31.98
2022-11-17T19:24:13.198Z,30.67
2022-11-17T19:26:42.694Z,29.80
2022-11-17T19:29:17.140Z,30.77
2022-11-17T19:31:48.814Z,30.45
2022-11-17T19:34:17.421Z,30.48
2022-11-17T19:40:20.214Z,34.80
2022-11-17T19:42:50.041Z,30.45
2022-11-17T19:45:18.968Z,33.65
2022-11-17T19:47:49.293Z,31.92
2022-11-17T19:50:18.312Z,31.48
2022-11-17T19:52:46.782Z,32.45
2022-11-17T19:55:15.188Z,32.95
2022-11-17T19:57:43.553Z,36.38
2022-11-17T20:00:13.237Z,32.33
2022-11-17T20:02:41.664Z,30.92
2022-11-17T20:05:11.606Z,35.65
2022-11-17T20:07:40.150Z,37.58
2022-11-17T20:10:09.059Z,35.78
2022-11-17T20:12:37.667Z,32.25
2022-11-17T20:15:06.474Z,33.95
2022-11-17T20:17:34.899Z,39.97
2022-11-17T20:20:03.291Z,32.63
2022-11-17T20:22:33.575Z,34.97
2022-11-17T20:25:03.680Z,36.67
2022-11-17T20:27:32.852Z,39.28
2022-11-17T20:30:01.568Z,34.67
2022-11-17T20:32:30.729Z,32.03
2022-11-17T20:34:59.234Z,31.85
2022-11-17T20:37:27.575Z,32.67
2022-11-17T20:40:05.257Z,36.38
2022-11-17T20:42:33.629Z,38.88
2022-11-17T20:45:01.966Z,34.00
2022-11-17T20:47:31.528Z,32.33
2022-11-17T20:50:00.403Z,30.65
2022-11-17T20:52:28.854Z,35.30
2022-11-17T20:54:58.647Z,34.15
2022-11-17T20:57:27.066Z,32.40
2022-11-17T20:59:55.464Z,34.70
2022-11-17T21:02:23.875Z,34.10
2022-11-17T21:04:52.378Z,38.10
2022-11-17T21:07:20.850Z,33.78
2022-11-17T21:09:49.213Z,34.00
2022-11-17T21:12:18.981Z,33.42
2022-11-17T21:14:47.319Z,33.35
2022-11-17T21:17:29.609Z,32.75
2022-11-17T21:19:57.926Z,31.92
2022-11-17T21:22:26.317Z,31.88
2022-11-17T21:24:54.660Z,33.72
2022-11-17T21:27:24.458Z,33.13
2022-11-17T21:29:52.884Z,30.50
2022-11-17T21:32:21.290Z,31.70
2022-11-17T21:34:50.029Z,32.70
2022-11-17T21:37:18.567Z,30.85
2022-11-17T21:39:46.903Z,34.13
2022-11-17T21:42:15.233Z,34.58
2022-11-17T21:44:45.018Z,33.88
2022-11-17T21:47:13.370Z,29.98
2022-11-17T21:49:41.766Z,32.08
2022-11-17T21:52:10.367Z,32.47
2022-11-17T21:54:38.807Z,30.05
2022-11-17T21:57:07.248Z,37.95
2022-11-17T21:59:35.677Z,31.65
2022-11-17T22:02:05.484Z,31.33
2022-11-17T22:04:33.942Z,34.42
2022-11-17T22:07:02.429Z,31.80
2022-11-17T22:09:30.853Z,31.23
2022-11-17T22:11:59.269Z,32.42
2022-11-17T22:14:27.679Z,32.80
2022-11-17T22:16:56.479Z,30.83
2022-11-17T22:19:29.368Z,30.92
2022-11-17T22:21:57.800Z,33.63
2022-11-17T22:24:26.167Z,34.08
2022-11-17T22:26:54.523Z,34.60
2022-11-17T22:29:23.036Z,33.33
2022-11-17T22:31:51.710Z,31.15
2022-11-17T22:34:20.276Z,32.97
2022-11-17T22:36:49.999Z,32.33
2022-11-17T22:39:19.666Z,30.23
2022-11-17T22:41:48.241Z,34.33
2022-11-17T22:44:17.294Z,33.97
2022-11-17T22:46:45.662Z,32.53
2022-11-17T22:49:14.468Z,30.80
2022-11-17T22:52:00.463Z,33.67
2022-11-17T22:54:30.415Z,34.42
2022-11-17T22:56:59.188Z,35.95
2022-11-17T22:59:28.457Z,33.88
2022-11-17T23:01:56.972Z,33.55
2022-11-17T23:04:25.834Z,34.15
2022-11-17T23:06:54.308Z,37.72
2022-11-17T23:09:22.773Z,35.28
2022-11-17T23:11:52.502Z,30.98
2022-11-17T23:14:20.865Z,36.15
2022-11-17T23:16:49.232Z,37.78
2022-11-17T23:19:17.912Z,35.25
2022-11-17T23:21:46.502Z,34.08
2022-11-17T23:24:14.900Z,33.75
2022-11-17T23:26:43.916Z,36.95
2022-11-17T23:29:14.016Z,36.90
2022-11-17T23:31:42.631Z,35.53
2022-11-17T23:34:12.113Z,38.15
2022-11-17T23:36:40.530Z,36.40
2022-11-17T23:39:09.092Z,36.17
2022-11-17T23:41:37.422Z,37.30
2022-11-17T23:44:06.378Z,37.40
2022-11-17T23:46:36.046Z,37.70
2022-11-17T23:49:04.671Z,39.22
2022-11-17T23:51:33.006Z,38.22
2022-11-17T23:54:02.908Z,34.97
2022-11-17T23:56:33.590Z,37.95
2022-11-17T23:59:02.032Z,38.08
